Time;durP1;ratioP1;P1;durP2;ratioP2;P2;SDS_P1;SDS_P2;PMS_P1;PMS_P2;Temp;Humidity;BMP_temperature;BMP_pressure;BME280_temperature;BME280_humidity;BME280_pressure;Samples;Min_cycle;Max_cycle;Signal;HPM_P1;HPM_P2
2022/09/30 00:02:24;;;;;;;12.93;11.73;;;10.30;93.20;;;;;;5013912;28;20193;-87
2022/09/30 00:04:49;;;;;;;12.83;11.53;;;10.30;93.10;;;;;;5012577;28;20666;-87
2022/09/30 00:07:15;;;;;;;13.23;12.03;;;10.20;93.00;;;;;;5012715;28;20649;-87
2022/09/30 00:09:40;;;;;;;13.37;12.17;;;10.00;93.00;;;;;;5012403;28;20255;-87
2022/09/30 00:12:06;;;;;;;14.33;12.83;;;9.90;93.10;;;;;;5012347;28;20679;-87
2022/09/30 00:14:31;;;;;;;13.93;12.63;;;9.80;93.10;;;;;;5013672;28;20169;-87
2022/09/30 00:16:57;;;;;;;13.77;12.40;;;9.70;93.10;;;;;;5012391;28;20586;-87
2022/09/30 00:19:22;;;;;;;15.10;13.50;;;9.60;93.30;;;;;;5012701;28;20181;-86
2022/09/30 00:21:48;;;;;;;14.17;12.23;;;9.50;93.40;;;;;;5012501;28;20244;-87
2022/09/30 00:24:13;;;;;;;14.80;13.23;;;9.50;93.50;;;;;;5012581;28;20181;-87
2022/09/30 00:26:39;;;;;;;14.83;13.43;;;9.40;93.60;;;;;;5013722;28;20248;-87
2022/09/30 00:29:05;;;;;;;15.20;13.67;;;9.30;93.70;;;;;;5013248;28;20211;-86
2022/09/30 00:31:33;;;;;;;17.30;14.20;;;9.20;93.80;;;;;;5012497;28;20197;-86
2022/09/30 00:34:08;;;;;;;14.70;13.40;;;9.20;93.80;;;;;;5012749;28;20178;-86
2022/09/30 00:36:45;;;;;;;15.00;13.60;;;9.10;93.90;;;;;;5012901;28;20215;-86
2022/09/30 00:39:14;;;;;;;15.03;13.63;;;9.00;94.00;;;;;;5012517;28;20212;-87
2022/09/30 00:41:40;;;;;;;19.40;15.10;;;9.00;94.00;;;;;;5013489;28;20730;-88
2022/09/30 00:44:44;;;;;;;16.60;15.07;;;8.90;94.10;;;;;;5012316;28;20213;-88
2022/09/30 00:47:29;;;;;;;18.40;16.57;;;8.90;94.10;;;;;;5012882;28;20185;-87
2022/09/30 00:49:58;;;;;;;19.70;15.57;;;8.90;94.20;;;;;;5016553;28;20530;-87
2022/09/30 00:52:25;;;;;;;18.87;16.53;;;8.90;94.20;;;;;;5015827;28;20301;-87
2022/09/30 00:54:52;;;;;;;18.17;15.70;;;8.90;94.30;;;;;;5016365;28;20197;-87
2022/09/30 00:57:17;;;;;;;17.07;15.47;;;8.90;94.30;;;;;;5016907;28;20181;-87
2022/09/30 00:59:47;;;;;;;19.40;17.30;;;8.90;94.30;;;;;;5015678;28;20182;-87
2022/09/30 01:02:13;;;;;;;20.43;16.83;;;8.80;94.30;;;;;;5015582;28;20202;-85
2022/09/30 01:04:41;;;;;;;21.60;18.90;;;8.80;94.30;;;;;;5015588;28;20174;-87
2022/09/30 01:07:08;;;;;;;22.33;18.87;;;8.80;94.40;;;;;;5015733;28;20173;-86
2022/09/30 01:09:40;;;;;;;23.00;20.70;;;8.80;94.40;;;;;;5015615;28;20181;-87
2022/09/30 01:12:13;;;;;;;27.60;22.13;;;8.80;94.40;;;;;;5015389;28;20707;-87
2022/09/30 01:14:40;;;;;;;20.63;18.43;;;8.80;94.40;;;;;;5016005;28;20193;-89
2022/09/30 01:17:27;;;;;;;21.07;18.73;;;8.80;94.40;;;;;;5016654;28;20180;-88
2022/09/30 01:20:11;;;;;;;20.60;18.47;;;8.70;94.40;;;;;;5015335;28;20154;-88
2022/09/30 01:22:58;;;;;;;21.63;19.27;;;8.60;94.40;;;;;;5015467;28;20223;-86
2022/09/30 01:25:44;;;;;;;22.23;18.93;;;8.60;94.50;;;;;;5015120;28;20667;-88
2022/09/30 01:28:41;;;;;;;22.03;18.93;;;8.60;94.60;;;;;;5015177;28;20168;-87
2022/09/30 01:31:48;;;;;;;21.57;19.10;;;8.60;94.60;;;;;;5016591;28;20197;-88
2022/09/30 01:34:44;;;;;;;20.67;18.33;;;8.50;94.60;;;;;;5015184;28;20165;-88
2022/09/30 01:37:25;;;;;;;20.67;18.53;;;8.50;94.60;;;;;;5014845;28;20174;-87
2022/09/30 01:40:01;;;;;;;21.53;19.10;;;8.40;94.70;;;;;;5016322;28;20158;-89
2022/09/30 01:42:50;;;;;;;20.57;18.43;;;8.40;94.70;;;;;;5015710;28;20189;-88
2022/09/30 01:45:34;;;;;;;21.13;18.87;;;8.30;94.70;;;;;;5015961;28;20679;-89
2022/09/30 01:48:06;;;;;;;22.83;19.67;;;8.40;94.70;;;;;;5014882;28;20215;-88
2022/09/30 01:50:48;;;;;;;22.43;18.83;;;8.30;94.70;;;;;;5015956;28;20161;-88
2022/09/30 01:53:37;;;;;;;23.13;19.83;;;8.30;94.70;;;;;;5014760;28;20301;-88
2022/09/30 01:56:24;;;;;;;19.83;16.60;;;8.50;94.80;;;;;;5014599;28;20174;-88
2022/09/30 01:59:11;;;;;;;18.37;16.37;;;8.50;94.70;;;;;;5014658;28;20264;-88
2022/09/30 02:01:48;;;;;;;20.10;16.93;;;8.50;94.70;;;;;;5014594;28;20615;-88
2022/09/30 02:04:26;;;;;;;19.50;17.03;;;8.40;94.60;;;;;;5015708;28;20196;-88
2022/09/30 02:06:57;;;;;;;19.90;17.37;;;8.50;94.70;;;;;;5014998;28;20221;-88
2022/09/30 02:09:49;;;;;;;19.10;17.27;;;8.50;94.70;;;;;;5014414;28;20172;-88
2022/09/30 02:12:19;;;;;;;19.50;17.00;;;8.40;94.70;;;;;;5013803;28;20198;-89
2022/09/30 02:14:56;;;;;;;19.37;17.47;;;8.50;94.70;;;;;;5015597;28;20687;-87
2022/09/30 02:17:27;;;;;;;20.23;18.10;;;8.50;94.70;;;;;;5015979;28;20170;-89
2022/09/30 02:20:09;;;;;;;19.07;17.17;;;8.40;94.60;;;;;;5017610;28;20197;-88
2022/09/30 02:23:15;;;;;;;20.63;18.13;;;8.40;94.60;;;;;;5017531;28;20250;-90
2022/09/30 02:25:46;;;;;;;21.10;18.53;;;8.40;94.60;;;;;;5015312;28;20213;-89
2022/09/30 02:28:21;;;;;;;21.13;18.73;;;8.40;94.60;;;;;;5015572;28;20560;-90
2022/09/30 02:30:51;;;;;;;20.60;18.47;;;8.40;94.60;;;;;;5015864;28;20216;-89
2022/09/30 02:33:24;;;;;;;21.33;18.47;;;8.40;94.60;;;;;;5015867;28;20197;-89
2022/09/30 02:35:56;;;;;;;22.13;19.80;;;8.40;94.60;;;;;;5017212;28;20154;-88
2022/09/30 02:38:27;;;;;;;21.40;18.97;;;8.40;94.60;;;;;;5015874;28;20644;-89
2022/09/30 02:41:01;;;;;;;24.30;19.97;;;8.50;94.60;;;;;;5016030;28;20263;-89
2022/09/30 02:43:27;;;;;;;23.30;20.80;;;8.50;94.70;;;;;;5015755;28;20178;-89
2022/09/30 02:46:10;;;;;;;24.77;22.03;;;8.50;94.70;;;;;;5015715;28;20197;-89
2022/09/30 02:48:45;;;;;;;25.77;21.27;;;8.50;94.70;;;;;;5016889;28;20569;-89
2022/09/30 02:51:14;;;;;;;22.93;20.53;;;8.40;94.70;;;;;;5015388;28;20169;-89
2022/09/30 02:54:10;;;;;;;21.90;19.57;;;8.50;94.70;;;;;;5014755;28;20173;-89
2022/09/30 02:56:55;;;;;;;22.97;20.67;;;8.50;94.70;;;;;;5009539;28;20225;-90
2022/09/30 02:59:24;;;;;;;19.13;17.13;;;8.60;94.70;;;;;;5014774;28;20176;-90
2022/09/30 03:01:49;;;;;;;20.33;18.00;;;8.60;94.70;;;;;;5015553;28;20223;-89
2022/09/30 03:04:20;;;;;;;19.53;17.53;;;8.50;94.70;;;;;;5015551;28;20169;-90
2022/09/30 03:06:46;;;;;;;21.60;19.37;;;8.60;94.70;;;;;;5015743;28;20251;-89
2022/09/30 03:09:11;;;;;;;21.67;19.33;;;8.60;94.70;;;;;;5014563;28;20173;-89
2022/09/30 03:11:37;;;;;;;22.97;19.13;;;8.70;94.70;;;;;;5014225;28;20197;-89
2022/09/30 03:14:18;;;;;;;22.50;20.07;;;8.60;94.70;;;;;;5015548;28;20173;-89
2022/09/30 03:16:49;;;;;;;23.23;20.83;;;8.70;94.70;;;;;;5014363;28;20173;-90
2022/09/30 03:19:39;;;;;;;23.07;20.57;;;8.70;94.80;;;;;;5014296;28;20184;-89
2022/09/30 03:22:41;;;;;;;23.80;21.30;;;8.80;94.80;;;;;;5015848;28;20248;-89
2022/09/30 03:25:16;;;;;;;31.23;24.57;;;8.70;94.80;;;;;;5015368;28;20220;-90
2022/09/30 03:27:50;;;;;;;25.77;23.13;;;8.90;94.90;;;;;;5017194;28;20246;-90
2022/09/30 03:30:19;;;;;;;23.83;20.90;;;8.90;94.90;;;;;;5017780;28;20196;-89
2022/09/30 03:33:02;;;;;;;23.70;21.03;;;8.90;94.80;;;;;;5016431;28;20190;-89
2022/09/30 03:35:42;;;;;;;25.60;22.50;;;8.90;94.90;;;;;;5015971;28;20169;-89
2022/09/30 03:38:33;;;;;;;25.03;22.30;;;8.90;94.90;;;;;;5015210;28;20154;-90
2022/09/30 03:41:18;;;;;;;26.93;22.47;;;8.90;94.90;;;;;;5013773;28;20196;-89
2022/09/30 03:44:00;;;;;;;25.77;22.00;;;8.90;94.90;;;;;;5015115;28;20177;-89
2022/09/30 03:46:33;;;;;;;25.07;21.97;;;8.90;94.90;;;;;;5014872;28;20672;-90
2022/09/30 03:49:03;;;;;;;23.97;21.37;;;8.90;94.90;;;;;;5015732;28;20183;-90
2022/09/30 03:51:29;;;;;;;30.27;23.17;;;8.90;94.90;;;;;;5015385;28;20293;-88
2022/09/30 03:54:00;;;;;;;25.77;22.57;;;8.80;94.90;;;;;;5020094;28;20177;-88
2022/09/30 03:56:28;;;;;;;25.47;22.77;;;8.80;94.90;;;;;;5016671;28;20269;-91
2022/09/30 03:58:55;;;;;;;26.80;22.60;;;8.80;94.90;;;;;;5014829;28;20203;-89
2022/09/30 04:01:22;;;;;;;28.60;23.93;;;8.80;94.90;;;;;;5019048;28;20196;-89
2022/09/30 04:03:51;;;;;;;29.17;24.10;;;8.80;95.00;;;;;;5015470;28;20173;-89
2022/09/30 04:06:24;;;;;;;29.93;23.90;;;8.90;95.00;;;;;;5015784;28;20197;-90
2022/09/30 04:08:52;;;;;;;28.73;23.00;;;8.90;95.00;;;;;;5019144;28;20161;-87
2022/09/30 04:11:18;;;;;;;27.20;24.33;;;8.90;95.00;;;;;;5016902;28;20664;-90
2022/09/30 04:13:43;;;;;;;27.27;23.93;;;8.90;95.00;;;;;;5014374;28;20188;-89
2022/09/30 04:16:09;;;;;;;29.73;24.77;;;8.90;95.00;;;;;;5015245;28;20173;-88
2022/09/30 04:18:36;;;;;;;34.90;25.33;;;8.80;95.00;;;;;;5018697;28;20276;-89
2022/09/30 04:21:05;;;;;;;29.33;25.03;;;8.90;95.10;;;;;;5017217;28;20232;-89
2022/09/30 04:23:36;;;;;;;32.83;27.07;;;8.90;95.10;;;;;;5015322;28;20185;-89
2022/09/30 04:26:02;;;;;;;31.63;26.00;;;9.00;95.10;;;;;;5017724;28;20667;-89
2022/09/30 04:28:28;;;;;;;30.33;26.80;;;9.00;95.10;;;;;;5017525;28;20196;-89
2022/09/30 04:30:53;;;;;;;30.27;26.30;;;9.00;95.20;;;;;;5017236;28;20185;-90
2022/09/30 04:33:19;;;;;;;35.27;28.50;;;8.90;95.10;;;;;;5017802;28;20189;-89
2022/09/30 04:35:44;;;;;;;36.30;28.97;;;9.00;95.20;;;;;;5019359;28;20177;-89
2022/09/30 04:38:10;;;;;;;32.57;28.33;;;9.00;95.20;;;;;;5018201;28;20272;-89
2022/09/30 04:40:37;;;;;;;34.77;28.53;;;9.00;95.20;;;;;;5018191;28;20335;-90
2022/09/30 04:43:02;;;;;;;36.07;30.53;;;8.90;95.20;;;;;;5017671;28;20201;-88
2022/09/30 04:45:29;;;;;;;34.13;30.00;;;9.00;95.30;;;;;;5017981;28;20212;-89
2022/09/30 04:47:55;;;;;;;38.70;29.93;;;9.00;95.30;;;;;;5018074;28;20205;-89
2022/09/30 04:50:20;;;;;;;36.20;29.77;;;9.00;95.30;;;;;;5019290;28;20244;-89
2022/09/30 04:52:46;;;;;;;38.37;31.10;;;9.10;95.30;;;;;;5018901;28;20187;-89
2022/09/30 04:55:12;;;;;;;33.83;29.63;;;9.00;95.30;;;;;;5019171;28;20181;-89
2022/09/30 04:57:38;;;;;;;36.93;31.57;;;9.10;95.30;;;;;;5017855;28;20220;-90
2022/09/30 05:00:07;;;;;;;39.27;32.17;;;9.10;95.30;;;;;;5017689;28;20200;-89
2022/09/30 05:02:33;;;;;;;37.03;32.10;;;9.10;95.30;;;;;;5017516;28;20710;-89
2022/09/30 05:04:59;;;;;;;37.80;32.93;;;9.10;95.30;;;;;;5017167;28;20177;-89
2022/09/30 05:07:25;;;;;;;41.20;33.07;;;9.10;95.20;;;;;;5018364;28;20201;-89
2022/09/30 05:09:52;;;;;;;36.50;32.03;;;9.10;95.30;;;;;;5017075;28;20165;-89
2022/09/30 05:12:17;;;;;;;40.17;32.20;;;9.10;95.20;;;;;;5017047;28;20590;-89
2022/09/30 05:14:43;;;;;;;35.60;31.37;;;9.10;95.20;;;;;;5017648;28;20185;-90
2022/09/30 05:17:09;;;;;;;37.33;32.37;;;9.10;95.30;;;;;;5018840;28;20178;-89
2022/09/30 05:19:34;;;;;;;38.27;32.57;;;9.10;95.20;;;;;;5017832;28;20554;-89
2022/09/30 05:22:00;;;;;;;41.33;34.77;;;9.10;95.20;;;;;;5019012;28;20220;-89
2022/09/30 05:24:25;;;;;;;40.27;33.30;;;9.10;95.30;;;;;;5019226;28;20275;-89
2022/09/30 05:26:51;;;;;;;38.70;33.17;;;9.10;95.30;;;;;;5017570;28;20240;-89
2022/09/30 05:29:16;;;;;;;41.50;34.30;;;9.10;95.30;;;;;;5017036;28;20193;-89
2022/09/30 05:31:42;;;;;;;39.97;35.30;;;9.10;95.30;;;;;;5017752;28;20243;-89
2022/09/30 05:34:08;;;;;;;39.20;33.87;;;9.10;95.30;;;;;;5017542;28;20272;-90
2022/09/30 05:36:33;;;;;;;39.83;35.53;;;9.10;95.30;;;;;;5018983;28;20705;-89
2022/09/30 05:38:59;;;;;;;41.30;34.90;;;9.10;95.30;;;;;;5016453;28;20185;-89
2022/09/30 05:41:25;;;;;;;42.33;35.00;;;9.20;95.30;;;;;;5016411;28;20202;-89
2022/09/30 05:43:50;;;;;;;44.60;34.23;;;9.10;95.30;;;;;;5016168;28;20240;-89
2022/09/30 05:46:18;;;;;;;41.27;34.67;;;9.10;95.30;;;;;;5015973;28;20292;-88
2022/09/30 05:48:44;;;;;;;37.67;32.93;;;9.10;95.20;;;;;;5017358;28;20185;-89
2022/09/30 05:51:10;;;;;;;41.60;35.07;;;9.20;95.20;;;;;;5015935;28;20177;-89
2022/09/30 05:53:37;;;;;;;44.23;36.03;;;9.10;95.20;;;;;;5016394;28;20236;-90
2022/09/30 05:56:07;;;;;;;42.83;35.17;;;9.10;95.20;;;;;;5017017;28;20182;-89
2022/09/30 05:58:33;;;;;;;42.27;35.70;;;9.10;95.20;;;;;;5018074;28;20176;-89
2022/09/30 06:01:05;;;;;;;38.27;33.30;;;9.20;95.20;;;;;;5017238;28;20264;-89
2022/09/30 06:03:31;;;;;;;40.33;35.67;;;9.20;95.30;;;;;;5016182;28;20219;-91
2022/09/30 06:05:56;;;;;;;40.60;34.03;;;9.20;95.20;;;;;;5016034;28;20265;-89
2022/09/30 06:08:22;;;;;;;38.60;33.50;;;9.30;95.20;;;;;;5015921;28;20295;-89
2022/09/30 06:10:48;;;;;;;40.17;34.93;;;9.20;95.10;;;;;;5015993;28;20193;-89
2022/09/30 06:13:16;;;;;;;42.37;35.40;;;9.30;95.20;;;;;;5015646;28;20212;-89
2022/09/30 06:15:42;;;;;;;39.53;33.80;;;9.30;95.10;;;;;;5017315;28;20192;-89
2022/09/30 06:18:11;;;;;;;38.00;32.70;;;9.30;95.10;;;;;;5015879;28;20548;-89
2022/09/30 06:20:37;;;;;;;42.03;34.47;;;9.30;95.10;;;;;;5017279;28;20173;-89
2022/09/30 06:23:03;;;;;;;38.87;33.33;;;9.40;95.00;;;;;;5018949;28;20228;-89
2022/09/30 06:25:29;;;;;;;36.30;31.90;;;9.40;95.00;;;;;;5017766;28;20215;-89
2022/09/30 06:27:55;;;;;;;42.00;32.03;;;9.40;95.00;;;;;;5017237;28;20309;-89
2022/09/30 06:30:21;;;;;;;38.77;32.57;;;9.50;94.90;;;;;;5017773;28;20229;-89
2022/09/30 06:32:46;;;;;;;36.57;31.43;;;9.50;94.90;;;;;;5015869;28;20254;-88
2022/09/30 06:35:12;;;;;;;36.73;32.93;;;9.50;94.80;;;;;;5016963;28;20188;-88
2022/09/30 06:37:38;;;;;;;35.53;30.83;;;9.60;94.80;;;;;;5016882;28;20319;-88
2022/09/30 06:40:05;;;;;;;36.37;30.17;;;9.60;94.70;;;;;;5016629;28;20189;-89
2022/09/30 06:42:31;;;;;;;33.07;29.33;;;9.60;94.70;;;;;;5014895;28;20220;-89
2022/09/30 06:44:56;;;;;;;35.37;29.63;;;9.60;94.60;;;;;;5015141;28;20177;-89
2022/09/30 06:47:22;;;;;;;34.60;30.43;;;9.60;94.50;;;;;;5014451;28;20177;-89
2022/09/30 06:49:47;;;;;;;35.97;31.10;;;9.70;94.50;;;;;;5016250;28;20169;-89
2022/09/30 06:52:13;;;;;;;31.90;28.47;;;9.70;94.50;;;;;;5014510;28;20672;-88
2022/09/30 06:54:42;;;;;;;33.73;27.87;;;9.70;94.40;;;;;;5014717;28;20552;-88
2022/09/30 06:57:08;;;;;;;28.47;25.47;;;9.80;94.20;;;;;;5016956;28;20207;-89
2022/09/30 06:59:33;;;;;;;28.80;24.73;;;9.80;94.30;;;;;;5015979;28;20652;-90
2022/09/30 07:01:59;;;;;;;29.87;26.63;;;9.80;94.20;;;;;;5015540;28;20204;-90
2022/09/30 07:04:25;;;;;;;29.90;26.87;;;9.80;94.10;;;;;;5015490;28;20643;-89
2022/09/30 07:06:50;;;;;;;30.97;25.97;;;9.80;94.20;;;;;;5014670;28;20228;-90
2022/09/30 07:09:16;;;;;;;30.03;25.57;;;9.90;94.10;;;;;;5015913;28;20528;-89
2022/09/30 07:11:42;;;;;;;35.03;25.50;;;9.90;94.10;;;;;;5014508;28;20197;-89
2022/09/30 07:14:09;;;;;;;27.87;24.87;;;9.90;94.00;;;;;;5019208;28;20173;-88
2022/09/30 07:16:35;;;;;;;27.37;24.50;;;10.00;94.00;;;;;;5015629;28;20181;-89
2022/09/30 07:19:02;;;;;;;28.57;24.67;;;10.00;93.90;;;;;;5015785;28;20201;-89
2022/09/30 07:21:29;;;;;;;29.20;21.73;;;10.10;93.70;;;;;;5019479;28;20193;-90
2022/09/30 07:23:57;;;;;;;25.53;21.80;;;10.20;93.60;;;;;;5018153;28;20181;-88
2022/09/30 07:26:23;;;;;;;22.57;20.17;;;10.20;93.40;;;;;;5017441;28;20220;-88
2022/09/30 07:28:50;;;;;;;23.90;21.40;;;10.30;93.40;;;;;;5013781;28;20543;-89
2022/09/30 07:31:22;;;;;;;23.97;21.40;;;10.30;93.20;;;;;;5014510;28;20215;-89
2022/09/30 07:33:50;;;;;;;23.70;20.23;;;10.30;93.10;;;;;;5015432;28;20178;-89
2022/09/30 07:36:17;;;;;;;24.87;20.73;;;10.50;93.10;;;;;;5015118;28;20185;-89
2022/09/30 07:38:44;;;;;;;24.40;20.83;;;10.50;92.90;;;;;;5014632;28;20173;-88
2022/09/30 07:41:15;;;;;;;23.07;20.63;;;10.50;92.80;;;;;;5015374;28;20177;-89
2022/09/30 07:43:45;;;;;;;24.23;21.70;;;10.60;92.90;;;;;;5014414;28;20169;-89
2022/09/30 07:46:25;;;;;;;21.57;19.27;;;10.60;92.60;;;;;;5013717;28;20213;-89
2022/09/30 07:48:55;;;;;;;20.77;18.07;;;10.70;92.70;;;;;;5015223;28;20162;-88
2022/09/30 07:51:24;;;;;;;21.00;18.53;;;10.70;92.20;;;;;;5014100;28;20178;-88
2022/09/30 07:53:56;;;;;;;24.27;17.83;;;10.80;92.20;;;;;;5014364;28;20200;-89
2022/09/30 07:56:23;;;;;;;17.53;15.67;;;10.80;92.00;;;;;;5014772;28;20169;-89
2022/09/30 07:58:54;;;;;;;19.30;16.83;;;10.80;91.70;;;;;;5013476;28;20181;-89
2022/09/30 08:01:20;;;;;;;17.23;15.50;;;10.90;91.60;;;;;;5013241;28;20167;-88
2022/09/30 08:03:45;;;;;;;18.17;16.23;;;11.00;91.60;;;;;;5012746;28;20203;-89
2022/09/30 08:06:17;;;;;;;22.27;16.67;;;11.10;91.60;;;;;;5012895;28;20667;-89
2022/09/30 08:08:44;;;;;;;17.83;16.07;;;11.00;91.50;;;;;;5013004;28;20170;-89
2022/09/30 08:11:11;;;;;;;22.93;16.93;;;11.10;91.50;;;;;;5012943;28;20177;-89
2022/09/30 08:13:37;;;;;;;19.97;15.87;;;11.00;91.10;;;;;;5013629;28;20551;-89
2022/09/30 08:16:03;;;;;;;17.50;15.03;;;11.10;91.30;;;;;;5016250;28;20177;-88
2022/09/30 08:18:29;;;;;;;17.27;13.47;;;11.10;90.90;;;;;;5021783;28;20674;-88
2022/09/30 08:20:55;;;;;;;16.23;14.73;;;11.30;91.30;;;;;;5019538;28;20249;-89
2022/09/30 08:23:20;;;;;;;20.80;14.20;;;11.30;90.60;;;;;;5016054;28;20197;-88
2022/09/30 08:25:46;;;;;;;16.47;14.77;;;11.30;90.70;;;;;;5021138;28;20284;-88
2022/09/30 08:28:12;;;;;;;17.43;13.60;;;11.40;90.70;;;;;;5024558;28;20177;-88
2022/09/30 08:30:38;;;;;;;15.63;12.80;;;11.40;90.40;;;;;;5016076;28;20185;-88
2022/09/30 08:33:04;;;;;;;14.67;12.70;;;11.60;90.50;;;;;;5014658;28;20224;-89
2022/09/30 08:35:30;;;;;;;16.60;12.67;;;11.60;90.10;;;;;;5016002;28;20177;-88
2022/09/30 08:37:55;;;;;;;14.10;12.73;;;11.70;90.00;;;;;;5016639;28;20557;-89
2022/09/30 08:40:28;;;;;;;15.53;12.03;;;11.90;90.30;;;;;;5021764;28;20184;-88
2022/09/30 08:43:32;;;;;;;12.93;11.50;;;11.90;89.70;;;;;;5020303;28;20647;-88
2022/09/30 08:46:34;;;;;;;15.97;11.47;;;12.00;89.60;;;;;;4960691;28;20240;-89
2022/09/30 08:49:28;;;;;;;12.03;10.43;;;12.20;89.40;;;;;;4998489;28;20185;-89
2022/09/30 08:51:56;;;;;;;12.20;10.70;;;12.30;89.20;;;;;;5020352;28;20193;-88
2022/09/30 08:54:25;;;;;;;11.10;10.07;;;12.30;88.80;;;;;;5017202;28;20169;-88
2022/09/30 08:56:50;;;;;;;11.03;9.77;;;12.30;88.50;;;;;;5015606;28;20177;-88
2022/09/30 08:59:26;;;;;;;11.10;9.30;;;12.60;88.70;;;;;;5015630;28;20192;-88
2022/09/30 09:01:59;;;;;;;9.43;8.53;;;12.60;87.60;;;;;;5014526;28;20232;-89
2022/09/30 09:04:25;;;;;;;11.13;8.57;;;12.70;88.10;;;;;;5016851;28;20186;-88
2022/09/30 09:07:09;;;;;;;8.93;8.03;;;12.80;87.60;;;;;;5014175;28;20220;-89
2022/09/30 09:09:41;;;;;;;7.83;7.10;;;12.80;86.80;;;;;;5018633;28;20192;-87
2022/09/30 09:12:29;;;;;;;7.63;6.73;;;12.90;86.40;;;;;;5022228;28;20228;-88
2022/09/30 09:15:27;;;;;;;7.47;6.13;;;13.00;86.00;;;;;;5017942;28;20655;-89
2022/09/30 09:18:10;;;;;;;6.57;5.83;;;13.10;85.50;;;;;;4985596;28;20647;-89
2022/09/30 09:20:44;;;;;;;5.93;5.30;;;13.20;85.40;;;;;;5015659;28;20165;-91
2022/09/30 09:23:12;;;;;;;7.17;4.63;;;13.30;84.30;;;;;;5017102;28;20198;-88
2022/09/30 09:25:38;;;;;;;4.93;4.43;;;13.50;84.00;;;;;;5017240;28;20255;-89
2022/09/30 09:28:32;;;;;;;5.67;4.43;;;13.50;83.50;;;;;;5015737;28;20179;-89
2022/09/30 09:31:00;;;;;;;5.47;4.27;;;13.60;83.20;;;;;;5016745;28;20545;-88
2022/09/30 09:33:29;;;;;;;5.63;4.67;;;13.70;83.30;;;;;;5016389;28;20201;-89
2022/09/30 09:36:10;;;;;;;5.60;4.80;;;13.80;83.00;;;;;;5017634;28;20170;-89
2022/09/30 09:38:59;;;;;;;7.13;4.93;;;14.00;82.60;;;;;;5019117;28;20629;-88
2022/09/30 09:42:00;;;;;;;4.47;4.07;;;13.80;81.80;;;;;;5018426;28;20229;-88
2022/09/30 09:44:50;;;;;;;6.87;4.27;;;13.90;82.10;;;;;;5016054;28;20235;-89
2022/09/30 09:47:16;;;;;;;6.43;5.03;;;13.90;82.40;;;;;;5015814;28;20190;-88
2022/09/30 09:49:55;;;;;;;8.23;4.97;;;14.00;83.10;;;;;;5015382;28;20551;-89
2022/09/30 09:53:09;;;;;;;6.40;3.93;;;14.00;81.60;;;;;;5015192;28;20201;-89
2022/09/30 09:55:36;;;;;;;6.50;3.07;;;14.20;81.70;;;;;;4994710;28;20190;-89
2022/09/30 09:58:05;;;;;;;6.43;3.73;;;14.40;80.90;;;;;;5017457;28;20208;-92
2022/09/30 10:03:25;;;;;;;4.23;3.17;;;14.70;80.70;;;;;;5016375;28;20201;-90
2022/09/30 10:06:02;;;;;;;4.77;2.70;;;14.60;79.50;;;;;;5016003;28;20212;-91
2022/09/30 10:08:30;;;;;;;3.43;2.60;;;14.70;77.40;;;;;;5015178;28;20272;-92
2022/09/30 10:11:00;;;;;;;3.40;2.90;;;15.00;79.70;;;;;;5016986;28;20181;-89
2022/09/30 10:13:37;;;;;;;4.30;3.37;;;14.80;78.10;;;;;;5014984;28;20198;-89
2022/09/30 10:16:04;;;;;;;2.90;2.67;;;14.50;78.20;;;;;;5015934;28;20181;-91
2022/09/30 10:18:36;;;;;;;6.00;3.47;;;14.70;79.50;;;;;;5015025;28;20181;-89
2022/09/30 10:21:05;;;;;;;2.70;2.50;;;14.70;79.20;;;;;;5016162;28;20182;-89
2022/09/30 10:23:35;;;;;;;3.33;2.30;;;14.80;78.80;;;;;;5015715;28;20173;-89
2022/09/30 10:26:15;;;;;;;4.80;2.40;;;15.00;77.50;;;;;;5015875;28;20288;-89
2022/09/30 10:28:59;;;;;;;4.83;2.73;;;14.80;76.50;;;;;;5014607;28;20525;-89
2022/09/30 10:31:31;;;;;;;3.40;2.37;;;14.80;77.00;;;;;;5014867;28;20208;-89
2022/09/30 10:34:17;;;;;;;4.93;2.17;;;14.80;77.80;;;;;;5015078;28;20201;-89
2022/09/30 10:36:43;;;;;;;4.23;2.40;;;14.80;76.80;;;;;;5015392;28;20565;-89
2022/09/30 10:39:22;;;;;;;4.00;2.43;;;14.80;76.60;;;;;;5016419;28;20181;-89
2022/09/30 10:41:49;;;;;;;2.97;2.17;;;14.70;75.60;;;;;;5014877;28;20208;-89
2022/09/30 10:44:21;;;;;;;2.73;1.70;;;14.70;76.10;;;;;;5015111;28;20188;-88
2022/09/30 10:46:50;;;;;;;2.27;1.63;;;15.00;75.10;;;;;;5015849;28;20197;-88
2022/09/30 10:49:38;;;;;;;7.27;1.40;;;15.20;74.20;;;;;;5014752;28;20189;-88
2022/09/30 10:52:05;;;;;;;1.98;1.58;;;15.50;74.40;;;;;;5016295;28;20194;-89
2022/09/30 10:54:48;;;;;;;2.22;1.50;;;15.60;74.90;;;;;;5017305;28;20185;-88
2022/09/30 10:57:19;;;;;;;2.25;1.45;;;15.70;71.90;;;;;;5015295;28;20208;-88
2022/09/30 10:59:46;;;;;;;1.67;1.42;;;15.90;72.30;;;;;;5016437;28;20192;-89
2022/09/30 11:02:21;;;;;;;4.22;1.40;;;16.20;71.00;;;;;;5016182;28;20205;-89
2022/09/30 11:05:12;;;;;;;4.28;1.55;;;15.90;70.80;;;;;;5013957;28;20173;-88
2022/09/30 11:08:16;;;;;;;3.17;1.90;;;15.90;70.60;;;;;;5014864;28;20628;-88
2022/09/30 11:11:09;;;;;;;2.42;1.30;;;15.90;69.40;;;;;;4950426;28;20185;-88
2022/09/30 11:13:57;;;;;;;2.60;1.60;;;15.80;69.90;;;;;;5014646;28;20173;-88
2022/09/30 11:16:43;;;;;;;2.50;1.60;;;16.00;69.70;;;;;;5014242;28;20211;-88
2022/09/30 11:19:22;;;;;;;1.88;1.30;;;16.20;68.50;;;;;;5014093;28;20169;-89
2022/09/30 11:22:18;;;;;;;1.33;1.20;;;16.00;68.80;;;;;;5014552;28;20189;-89
2022/09/30 11:24:47;;;;;;;4.40;1.20;;;16.10;67.90;;;;;;5012997;28;20177;-89
2022/09/30 11:27:23;;;;;;;2.70;1.52;;;16.20;68.60;;;;;;5015723;28;20258;-88
2022/09/30 11:30:14;;;;;;;2.50;1.30;;;16.10;67.10;;;;;;5015407;28;20235;-89
2022/09/30 11:33:06;;;;;;;2.30;1.42;;;15.90;68.80;;;;;;5018632;28;20190;-89
2022/09/30 11:35:55;;;;;;;1.55;1.30;;;16.20;69.20;;;;;;5014932;28;20658;-88
2022/09/30 11:38:41;;;;;;;3.10;1.33;;;16.10;67.70;;;;;;5015269;28;20178;-89
2022/09/30 11:41:29;;;;;;;6.10;1.40;;;15.90;69.80;;;;;;5014671;28;20173;-90
2022/09/30 11:44:28;;;;;;;2.33;1.15;;;16.10;65.10;;;;;;5016980;28;20630;-88
2022/09/30 11:47:31;;;;;;;1.95;1.52;;;16.50;67.60;;;;;;5015054;28;20244;-88
2022/09/30 11:50:23;;;;;;;2.55;1.30;;;16.40;66.80;;;;;;5016284;28;20165;-89
2022/09/30 11:53:07;;;;;;;1.45;1.13;;;16.50;66.00;;;;;;5015576;28;20215;-87
2022/09/30 11:55:41;;;;;;;3.22;1.50;;;15.90;66.10;;;;;;5015047;28;20241;-89
2022/09/30 11:58:10;;;;;;;4.07;1.20;;;15.60;68.70;;;;;;5015034;28;20170;-89
2022/09/30 12:00:43;;;;;;;2.75;1.40;;;15.40;69.20;;;;;;5015241;28;20628;-88
2022/09/30 12:03:20;;;;;;;3.70;1.70;;;15.80;69.10;;;;;;5015221;28;20201;-87
2022/09/30 12:05:52;;;;;;;3.90;1.85;;;15.60;68.60;;;;;;5013273;28;20221;-89
2022/09/30 12:08:48;;;;;;;2.10;1.65;;;15.80;69.50;;;;;;5013749;28;20597;-90
2022/09/30 12:11:19;;;;;;;2.85;1.40;;;16.30;69.80;;;;;;5013085;28;20169;-89
2022/09/30 12:13:54;;;;;;;1.80;1.50;;;16.70;69.10;;;;;;5012968;28;20272;-89
2022/09/30 12:16:24;;;;;;;4.63;1.58;;;16.50;68.00;;;;;;5013989;28;20283;-89
2022/09/30 12:19:11;;;;;;;3.50;1.60;;;16.90;69.70;;;;;;5022147;28;20173;-92
2022/09/30 12:21:52;;;;;;;4.25;1.63;;;16.60;67.90;;;;;;5014776;28;20197;-90
2022/09/30 12:24:32;;;;;;;8.52;1.90;;;15.90;68.70;;;;;;5020419;28;20169;-90
2022/09/30 12:27:00;;;;;;;2.65;1.92;;;15.80;67.90;;;;;;5013938;28;20224;-90
2022/09/30 12:32:31;;;;;;;2.00;1.83;;;15.60;68.50;;;;;;5014758;28;20602;-89
2022/09/30 12:35:20;;;;;;;1.95;1.52;;;15.50;67.40;;;;;;5014248;28;20196;-90
2022/09/30 12:38:15;;;;;;;2.67;1.75;;;15.60;68.00;;;;;;5012887;28;20170;-90
2022/09/30 12:40:58;;;;;;;3.28;1.80;;;15.60;67.20;;;;;;5012642;28;20636;-89
2022/09/30 12:43:38;;;;;;;1.90;1.50;;;16.20;66.60;;;;;;5013308;28;20721;-90
2022/09/30 12:46:44;;;;;;;2.95;1.77;;;16.50;64.70;;;;;;5015907;28;20576;-89
2022/09/30 12:49:18;;;;;;;1.67;1.50;;;16.80;64.80;;;;;;4977699;28;20185;-90
2022/09/30 12:51:48;;;;;;;2.25;1.77;;;17.00;66.40;;;;;;5016109;28;20188;-89
2022/09/30 12:54:21;;;;;;;2.67;1.90;;;16.60;63.90;;;;;;5015903;28;20548;-90
2022/09/30 12:56:55;;;;;;;3.35;2.05;;;16.90;65.90;;;;;;5016879;28;20165;-89
2022/09/30 12:59:28;;;;;;;2.45;2.13;;;16.80;64.70;;;;;;5018852;28;20169;-92
2022/09/30 13:01:56;;;;;;;2.33;2.13;;;16.80;63.70;;;;;;5017512;28;20567;-90
2022/09/30 13:04:38;;;;;;;2.92;2.10;;;16.80;63.70;;;;;;5016044;28;20178;-89
2022/09/30 13:07:07;;;;;;;3.60;2.33;;;17.00;63.40;;;;;;5016820;28;20193;-89
2022/09/30 13:09:35;;;;;;;4.95;2.80;;;16.80;62.80;;;;;;5015498;28;20169;-90
2022/09/30 13:12:01;;;;;;;3.70;2.45;;;16.30;62.20;;;;;;5017219;28;20201;-89
2022/09/30 13:14:43;;;;;;;4.55;2.60;;;16.30;64.60;;;;;;5016078;28;20173;-89
2022/09/30 13:17:12;;;;;;;3.72;3.00;;;16.70;64.30;;;;;;5016491;28;20191;-90